sensor_id;sensor_type;location;lat;lon;timestamp;P1;durP1;ratioP1;P2;durP2;ratioP2
80481;SDS011;69797;43.864;21.410;2023-05-29T00:02:15;10.60;;;5.95;;
80481;SDS011;69797;43.864;21.410;2023-05-29T00:04:41;10.73;;;5.20;;
80481;SDS011;69797;43.864;21.410;2023-05-29T00:07:08;11.50;;;5.35;;
80481;SDS011;69797;43.864;21.410;2023-05-29T00:09:35;8.10;;;5.13;;
80481;SDS011;69797;43.864;21.410;2023-05-29T00:12:02;9.75;;;5.05;;
80481;SDS011;69797;43.864;21.410;2023-05-29T00:14:29;9.18;;;5.90;;
80481;SDS011;69797;43.864;21.410;2023-05-29T00:16:55;8.65;;;4.55;;
80481;SDS011;69797;43.864;21.410;2023-05-29T00:19:23;9.70;;;5.15;;
80481;SDS011;69797;43.864;21.410;2023-05-29T00:21:52;11.37;;;5.63;;
80481;SDS011;69797;43.864;21.410;2023-05-29T00:24:21;9.65;;;5.65;;
80481;SDS011;69797;43.864;21.410;2023-05-29T00:26:48;8.93;;;6.15;;
80481;SDS011;69797;43.864;21.410;2023-05-29T00:29:17;10.20;;;5.95;;
80481;SDS011;69797;43.864;21.410;2023-05-29T00:31:44;11.15;;;6.57;;
80481;SDS011;69797;43.864;21.410;2023-05-29T00:34:11;12.53;;;6.10;;
80481;SDS011;69797;43.864;21.410;2023-05-29T00:36:38;13.77;;;7.30;;
80481;SDS011;69797;43.864;21.410;2023-05-29T00:39:04;12.20;;;6.93;;
80481;SDS011;69797;43.864;21.410;2023-05-29T00:41:35;10.70;;;6.65;;
80481;SDS011;69797;43.864;21.410;2023-05-29T00:44:02;11.85;;;6.57;;
80481;SDS011;69797;43.864;21.410;2023-05-29T00:46:29;11.53;;;6.97;;
80481;SDS011;69797;43.864;21.410;2023-05-29T00:49:00;11.95;;;7.05;;
80481;SDS011;69797;43.864;21.410;2023-05-29T00:51:28;13.02;;;7.20;;
80481;SDS011;69797;43.864;21.410;2023-05-29T00:54:00;10.50;;;6.78;;
80481;SDS011;69797;43.864;21.410;2023-05-29T00:56:27;11.40;;;6.78;;
80481;SDS011;69797;43.864;21.410;2023-05-29T00:58:54;13.07;;;6.83;;
80481;SDS011;69797;43.864;21.410;2023-05-29T01:01:21;11.60;;;6.60;;
80481;SDS011;69797;43.864;21.410;2023-05-29T01:03:48;11.13;;;6.40;;
80481;SDS011;69797;43.864;21.410;2023-05-29T01:06:17;14.82;;;7.07;;
80481;SDS011;69797;43.864;21.410;2023-05-29T01:08:44;11.80;;;7.60;;
80481;SDS011;69797;43.864;21.410;2023-05-29T01:11:12;13.20;;;7.23;;
80481;SDS011;69797;43.864;21.410;2023-05-29T01:13:55;10.95;;;6.32;;
80481;SDS011;69797;43.864;21.410;2023-05-29T01:16:31;15.57;;;7.85;;
80481;SDS011;69797;43.864;21.410;2023-05-29T01:24:43;12.00;;;6.53;;
80481;SDS011;69797;43.864;21.410;2023-05-29T01:27:14;11.60;;;7.53;;
80481;SDS011;69797;43.864;21.410;2023-05-29T01:29:44;13.18;;;7.43;;
80481;SDS011;69797;43.864;21.410;2023-05-29T01:32:16;11.07;;;6.43;;
80481;SDS011;69797;43.864;21.410;2023-05-29T01:34:46;10.32;;;6.38;;
80481;SDS011;69797;43.864;21.410;2023-05-29T01:37:13;14.73;;;7.20;;
80481;SDS011;69797;43.864;21.410;2023-05-29T01:39:40;12.07;;;7.38;;
80481;SDS011;69797;43.864;21.410;2023-05-29T01:42:07;11.15;;;6.50;;
80481;SDS011;69797;43.864;21.410;2023-05-29T01:44:34;12.73;;;6.78;;
80481;SDS011;69797;43.864;21.410;2023-05-29T01:47:02;10.85;;;6.43;;
80481;SDS011;69797;43.864;21.410;2023-05-29T01:49:31;14.13;;;7.00;;
80481;SDS011;69797;43.864;21.410;2023-05-29T01:51:58;10.55;;;6.15;;
80481;SDS011;69797;43.864;21.410;2023-05-29T01:54:24;12.95;;;6.68;;
80481;SDS011;69797;43.864;21.410;2023-05-29T01:56:57;15.13;;;6.82;;
80481;SDS011;69797;43.864;21.410;2023-05-29T01:59:26;14.18;;;7.38;;
80481;SDS011;69797;43.864;21.410;2023-05-29T02:01:54;12.77;;;6.63;;
80481;SDS011;69797;43.864;21.410;2023-05-29T02:04:21;11.50;;;7.43;;
80481;SDS011;69797;43.864;21.410;2023-05-29T02:06:47;11.88;;;6.55;;
80481;SDS011;69797;43.864;21.410;2023-05-29T02:09:15;9.88;;;6.28;;
80481;SDS011;69797;43.864;21.410;2023-05-29T02:11:43;12.85;;;6.40;;
80481;SDS011;69797;43.864;21.410;2023-05-29T02:14:12;10.17;;;6.47;;
80481;SDS011;69797;43.864;21.410;2023-05-29T02:16:39;10.82;;;6.22;;
80481;SDS011;69797;43.864;21.410;2023-05-29T02:19:07;11.05;;;6.05;;
80481;SDS011;69797;43.864;21.410;2023-05-29T02:21:34;10.10;;;6.13;;
80481;SDS011;69797;43.864;21.410;2023-05-29T02:24:01;11.30;;;6.57;;
80481;SDS011;69797;43.864;21.410;2023-05-29T02:26:28;10.57;;;6.40;;
80481;SDS011;69797;43.864;21.410;2023-05-29T02:28:55;11.93;;;6.82;;
80481;SDS011;69797;43.864;21.410;2023-05-29T02:31:22;13.70;;;7.43;;
80481;SDS011;69797;43.864;21.410;2023-05-29T02:33:49;14.77;;;7.47;;
80481;SDS011;69797;43.864;21.410;2023-05-29T02:36:16;12.35;;;6.95;;
80481;SDS011;69797;43.864;21.410;2023-05-29T02:38:43;12.10;;;6.87;;
80481;SDS011;69797;43.864;21.410;2023-05-29T02:41:09;11.77;;;7.43;;
80481;SDS011;69797;43.864;21.410;2023-05-29T02:43:36;13.70;;;7.65;;
80481;SDS011;69797;43.864;21.410;2023-05-29T02:46:03;15.80;;;7.63;;
80481;SDS011;69797;43.864;21.410;2023-05-29T02:48:30;14.05;;;6.82;;
80481;SDS011;69797;43.864;21.410;2023-05-29T02:50:56;13.83;;;7.63;;
80481;SDS011;69797;43.864;21.410;2023-05-29T02:53:23;14.55;;;7.40;;
80481;SDS011;69797;43.864;21.410;2023-05-29T02:55:50;10.80;;;6.72;;
80481;SDS011;69797;43.864;21.410;2023-05-29T02:58:17;13.05;;;7.60;;
80481;SDS011;69797;43.864;21.410;2023-05-29T03:00:44;10.52;;;7.07;;
80481;SDS011;69797;43.864;21.410;2023-05-29T03:03:12;12.20;;;7.40;;
80481;SDS011;69797;43.864;21.410;2023-05-29T03:05:39;12.93;;;7.85;;
80481;SDS011;69797;43.864;21.410;2023-05-29T03:08:06;10.98;;;6.50;;
80481;SDS011;69797;43.864;21.410;2023-05-29T03:10:32;12.82;;;7.43;;
80481;SDS011;69797;43.864;21.410;2023-05-29T03:12:59;11.05;;;6.70;;
80481;SDS011;69797;43.864;21.410;2023-05-29T03:15:26;12.80;;;7.17;;
80481;SDS011;69797;43.864;21.410;2023-05-29T03:17:53;13.00;;;7.15;;
80481;SDS011;69797;43.864;21.410;2023-05-29T03:20:19;11.82;;;7.13;;
80481;SDS011;69797;43.864;21.410;2023-05-29T03:22:46;10.80;;;7.10;;
80481;SDS011;69797;43.864;21.410;2023-05-29T03:25:13;12.48;;;7.47;;
80481;SDS011;69797;43.864;21.410;2023-05-29T03:27:41;11.50;;;6.87;;
80481;SDS011;69797;43.864;21.410;2023-05-29T03:30:08;11.02;;;6.55;;
80481;SDS011;69797;43.864;21.410;2023-05-29T03:32:36;11.27;;;7.28;;
80481;SDS011;69797;43.864;21.410;2023-05-29T03:35:02;12.13;;;7.68;;
80481;SDS011;69797;43.864;21.410;2023-05-29T03:37:30;12.65;;;7.03;;
80481;SDS011;69797;43.864;21.410;2023-05-29T03:39:56;18.87;;;7.07;;
80481;SDS011;69797;43.864;21.410;2023-05-29T03:42:26;13.18;;;6.78;;
80481;SDS011;69797;43.864;21.410;2023-05-29T03:44:53;11.43;;;7.30;;
80481;SDS011;69797;43.864;21.410;2023-05-29T03:47:19;11.90;;;6.75;;
80481;SDS011;69797;43.864;21.410;2023-05-29T03:49:48;11.35;;;6.80;;
80481;SDS011;69797;43.864;21.410;2023-05-29T03:52:15;13.17;;;7.00;;
80481;SDS011;69797;43.864;21.410;2023-05-29T03:54:42;11.02;;;6.63;;
80481;SDS011;69797;43.864;21.410;2023-05-29T03:57:08;12.50;;;6.22;;
80481;SDS011;69797;43.864;21.410;2023-05-29T03:59:36;11.43;;;6.90;;
80481;SDS011;69797;43.864;21.410;2023-05-29T04:02:05;10.35;;;6.82;;
80481;SDS011;69797;43.864;21.410;2023-05-29T04:04:33;12.87;;;6.47;;
80481;SDS011;69797;43.864;21.410;2023-05-29T04:07:03;11.80;;;6.25;;
80481;SDS011;69797;43.864;21.410;2023-05-29T04:09:30;9.90;;;6.53;;
80481;SDS011;69797;43.864;21.410;2023-05-29T04:11:56;9.80;;;6.47;;
80481;SDS011;69797;43.864;21.410;2023-05-29T04:14:23;10.43;;;6.53;;
80481;SDS011;69797;43.864;21.410;2023-05-29T04:16:50;10.43;;;6.30;;
80481;SDS011;69797;43.864;21.410;2023-05-29T04:19:17;10.65;;;6.57;;
80481;SDS011;69797;43.864;21.410;2023-05-29T04:21:45;11.00;;;6.03;;
80481;SDS011;69797;43.864;21.410;2023-05-29T04:24:14;10.48;;;5.97;;
80481;SDS011;69797;43.864;21.410;2023-05-29T04:26:41;8.88;;;5.70;;
80481;SDS011;69797;43.864;21.410;2023-05-29T04:29:08;10.07;;;6.17;;
80481;SDS011;69797;43.864;21.410;2023-05-29T04:31:38;9.55;;;6.28;;
80481;SDS011;69797;43.864;21.410;2023-05-29T04:34:07;9.98;;;5.95;;
80481;SDS011;69797;43.864;21.410;2023-05-29T04:36:35;8.20;;;5.22;;
80481;SDS011;69797;43.864;21.410;2023-05-29T04:39:04;12.63;;;4.40;;
80481;SDS011;69797;43.864;21.410;2023-05-29T04:41:31;9.80;;;6.00;;
80481;SDS011;69797;43.864;21.410;2023-05-29T04:44:00;12.20;;;6.85;;
80481;SDS011;69797;43.864;21.410;2023-05-29T04:46:27;11.02;;;5.32;;
80481;SDS011;69797;43.864;21.410;2023-05-29T04:48:55;9.05;;;4.95;;
80481;SDS011;69797;43.864;21.410;2023-05-29T04:51:22;15.32;;;7.55;;
80481;SDS011;69797;43.864;21.410;2023-05-29T04:53:50;11.67;;;6.63;;
80481;SDS011;69797;43.864;21.410;2023-05-29T04:56:20;14.25;;;6.35;;
80481;SDS011;69797;43.864;21.410;2023-05-29T04:58:46;14.95;;;7.32;;
80481;SDS011;69797;43.864;21.410;2023-05-29T05:01:14;12.25;;;7.00;;
80481;SDS011;69797;43.864;21.410;2023-05-29T05:03:41;12.85;;;7.07;;
80481;SDS011;69797;43.864;21.410;2023-05-29T05:06:10;13.33;;;7.20;;
80481;SDS011;69797;43.864;21.410;2023-05-29T05:08:39;11.52;;;7.18;;
80481;SDS011;69797;43.864;21.410;2023-05-29T05:11:08;13.30;;;7.20;;
80481;SDS011;69797;43.864;21.410;2023-05-29T05:13:35;14.10;;;7.05;;
80481;SDS011;69797;43.864;21.410;2023-05-29T05:16:02;15.65;;;7.88;;
80481;SDS011;69797;43.864;21.410;2023-05-29T05:18:29;14.63;;;7.10;;
80481;SDS011;69797;43.864;21.410;2023-05-29T05:20:56;14.07;;;7.65;;
80481;SDS011;69797;43.864;21.410;2023-05-29T05:23:24;11.43;;;6.72;;
80481;SDS011;69797;43.864;21.410;2023-05-29T05:25:51;14.23;;;6.43;;
80481;SDS011;69797;43.864;21.410;2023-05-29T05:28:18;14.43;;;6.82;;
80481;SDS011;69797;43.864;21.410;2023-05-29T05:30:44;11.83;;;6.37;;
80481;SDS011;69797;43.864;21.410;2023-05-29T05:33:11;11.13;;;5.68;;
80481;SDS011;69797;43.864;21.410;2023-05-29T05:35:38;9.85;;;5.80;;
80481;SDS011;69797;43.864;21.410;2023-05-29T05:38:06;9.38;;;5.65;;
80481;SDS011;69797;43.864;21.410;2023-05-29T05:40:32;10.05;;;5.13;;
80481;SDS011;69797;43.864;21.410;2023-05-29T05:42:59;9.77;;;5.50;;
80481;SDS011;69797;43.864;21.410;2023-05-29T05:45:26;9.18;;;5.68;;
80481;SDS011;69797;43.864;21.410;2023-05-29T05:47:53;9.13;;;5.80;;
80481;SDS011;69797;43.864;21.410;2023-05-29T05:50:21;9.48;;;5.72;;
80481;SDS011;69797;43.864;21.410;2023-05-29T05:52:48;9.23;;;5.05;;
80481;SDS011;69797;43.864;21.410;2023-05-29T05:55:17;10.70;;;5.50;;
80481;SDS011;69797;43.864;21.410;2023-05-29T05:57:44;10.00;;;5.50;;
80481;SDS011;69797;43.864;21.410;2023-05-29T06:00:11;10.77;;;5.78;;
80481;SDS011;69797;43.864;21.410;2023-05-29T06:02:39;8.60;;;5.40;;
80481;SDS011;69797;43.864;21.410;2023-05-29T06:05:11;9.80;;;5.10;;
80481;SDS011;69797;43.864;21.410;2023-05-29T06:07:39;9.47;;;4.87;;
80481;SDS011;69797;43.864;21.410;2023-05-29T06:10:06;9.73;;;5.78;;
80481;SDS011;69797;43.864;21.410;2023-05-29T06:12:36;10.23;;;5.60;;
80481;SDS011;69797;43.864;21.410;2023-05-29T06:15:03;9.52;;;5.32;;
80481;SDS011;69797;43.864;21.410;2023-05-29T06:17:31;9.38;;;5.90;;
80481;SDS011;69797;43.864;21.410;2023-05-29T06:19:58;8.50;;;5.60;;
80481;SDS011;69797;43.864;21.410;2023-05-29T06:22:25;9.23;;;5.63;;
80481;SDS011;69797;43.864;21.410;2023-05-29T06:24:52;8.80;;;5.43;;
80481;SDS011;69797;43.864;21.410;2023-05-29T06:27:21;7.80;;;4.32;;
80481;SDS011;69797;43.864;21.410;2023-05-29T06:29:52;9.82;;;5.55;;
80481;SDS011;69797;43.864;21.410;2023-05-29T06:32:19;6.40;;;4.70;;
80481;SDS011;69797;43.864;21.410;2023-05-29T06:34:46;8.70;;;5.43;;
80481;SDS011;69797;43.864;21.410;2023-05-29T06:37:13;8.98;;;5.18;;
80481;SDS011;69797;43.864;21.410;2023-05-29T06:39:40;9.65;;;5.85;;
80481;SDS011;69797;43.864;21.410;2023-05-29T06:42:08;9.75;;;5.70;;
80481;SDS011;69797;43.864;21.410;2023-05-29T06:44:35;11.13;;;6.30;;
80481;SDS011;69797;43.864;21.410;2023-05-29T06:47:05;8.20;;;5.97;;
80481;SDS011;69797;43.864;21.410;2023-05-29T06:49:32;7.45;;;5.30;;
80481;SDS011;69797;43.864;21.410;2023-05-29T06:51:59;6.78;;;4.28;;
80481;SDS011;69797;43.864;21.410;2023-05-29T06:54:26;8.40;;;4.93;;
80481;SDS011;69797;43.864;21.410;2023-05-29T06:56:53;6.03;;;5.27;;
80481;SDS011;69797;43.864;21.410;2023-05-29T06:59:35;9.32;;;4.13;;
80481;SDS011;69797;43.864;21.410;2023-05-29T07:02:02;7.80;;;4.72;;
80481;SDS011;69797;43.864;21.410;2023-05-29T07:04:28;10.02;;;4.80;;
80481;SDS011;69797;43.864;21.410;2023-05-29T07:06:55;6.65;;;5.50;;
80481;SDS011;69797;43.864;21.410;2023-05-29T07:09:22;9.43;;;5.70;;
80481;SDS011;69797;43.864;21.410;2023-05-29T07:11:49;11.25;;;5.65;;
80481;SDS011;69797;43.864;21.410;2023-05-29T07:14:16;9.48;;;6.10;;
80481;SDS011;69797;43.864;21.410;2023-05-29T07:16:42;8.88;;;6.22;;
80481;SDS011;69797;43.864;21.410;2023-05-29T07:19:09;8.68;;;5.95;;
80481;SDS011;69797;43.864;21.410;2023-05-29T07:21:47;7.80;;;5.33;;
80481;SDS011;69797;43.864;21.410;2023-05-29T07:24:16;9.93;;;7.90;;
80481;SDS011;69797;43.864;21.410;2023-05-29T07:26:43;13.80;;;6.78;;
80481;SDS011;69797;43.864;21.410;2023-05-29T07:29:10;9.85;;;5.70;;
80481;SDS011;69797;43.864;21.410;2023-05-29T07:31:37;8.57;;;5.55;;
80481;SDS011;69797;43.864;21.410;2023-05-29T07:34:06;9.90;;;6.37;;
80481;SDS011;69797;43.864;21.410;2023-05-29T07:36:36;9.63;;;5.70;;
80481;SDS011;69797;43.864;21.410;2023-05-29T07:39:03;11.13;;;5.97;;
80481;SDS011;69797;43.864;21.410;2023-05-29T07:41:32;8.50;;;5.65;;
80481;SDS011;69797;43.864;21.410;2023-05-29T07:43:59;9.57;;;5.88;;
80481;SDS011;69797;43.864;21.410;2023-05-29T07:46:25;10.87;;;6.27;;
80481;SDS011;69797;43.864;21.410;2023-05-29T07:48:52;11.32;;;6.15;;
80481;SDS011;69797;43.864;21.410;2023-05-29T07:51:21;10.23;;;6.57;;
80481;SDS011;69797;43.864;21.410;2023-05-29T07:53:48;11.65;;;6.63;;
80481;SDS011;69797;43.864;21.410;2023-05-29T07:56:15;10.35;;;6.05;;
80481;SDS011;69797;43.864;21.410;2023-05-29T07:58:45;9.60;;;6.43;;
80481;SDS011;69797;43.864;21.410;2023-05-29T08:01:14;10.05;;;7.07;;
80481;SDS011;69797;43.864;21.410;2023-05-29T08:03:41;9.20;;;7.05;;
80481;SDS011;69797;43.864;21.410;2023-05-29T08:06:13;10.68;;;6.40;;
80481;SDS011;69797;43.864;21.410;2023-05-29T08:08:40;10.25;;;6.55;;
80481;SDS011;69797;43.864;21.410;2023-05-29T08:11:07;7.43;;;5.20;;
80481;SDS011;69797;43.864;21.410;2023-05-29T08:13:34;8.13;;;5.75;;
80481;SDS011;69797;43.864;21.410;2023-05-29T08:16:01;11.25;;;7.30;;
80481;SDS011;69797;43.864;21.410;2023-05-29T08:18:30;14.00;;;7.28;;
80481;SDS011;69797;43.864;21.410;2023-05-29T08:20:57;9.07;;;6.50;;
80481;SDS011;69797;43.864;21.410;2023-05-29T08:23:25;8.83;;;6.57;;
80481;SDS011;69797;43.864;21.410;2023-05-29T08:25:52;8.95;;;6.25;;
80481;SDS011;69797;43.864;21.410;2023-05-29T08:28:19;9.30;;;6.85;;
80481;SDS011;69797;43.864;21.410;2023-05-29T08:30:47;8.77;;;6.20;;
80481;SDS011;69797;43.864;21.410;2023-05-29T08:33:14;11.98;;;7.28;;
80481;SDS011;69797;43.864;21.410;2023-05-29T08:35:41;9.13;;;6.87;;
80481;SDS011;69797;43.864;21.410;2023-05-29T08:38:07;10.45;;;6.68;;
80481;SDS011;69797;43.864;21.410;2023-05-29T08:40:34;11.15;;;6.55;;
80481;SDS011;69797;43.864;21.410;2023-05-29T08:45:42;9.98;;;6.97;;
80481;SDS011;69797;43.864;21.410;2023-05-29T08:48:13;13.87;;;6.10;;
80481;SDS011;69797;43.864;21.410;2023-05-29T08:50:45;11.05;;;6.30;;
80481;SDS011;69797;43.864;21.410;2023-05-29T08:53:18;6.95;;;6.25;;
80481;SDS011;69797;43.864;21.410;2023-05-29T08:55:48;11.18;;;7.35;;
80481;SDS011;69797;43.864;21.410;2023-05-29T08:58:20;7.65;;;6.78;;
80481;SDS011;69797;43.864;21.410;2023-05-29T09:00:48;8.17;;;6.23;;
80481;SDS011;69797;43.864;21.410;2023-05-29T09:03:18;8.95;;;8.05;;
80481;SDS011;69797;43.864;21.410;2023-05-29T09:05:47;10.90;;;7.47;;
80481;SDS011;69797;43.864;21.410;2023-05-29T09:08:15;11.38;;;7.80;;
80481;SDS011;69797;43.864;21.410;2023-05-29T09:10:43;10.10;;;7.63;;
80481;SDS011;69797;43.864;21.410;2023-05-29T09:13:11;10.00;;;6.43;;
80481;SDS011;69797;43.864;21.410;2023-05-29T09:15:41;7.10;;;5.45;;
80481;SDS011;69797;43.864;21.410;2023-05-29T09:18:10;7.53;;;5.50;;
80481;SDS011;69797;43.864;21.410;2023-05-29T09:20:37;7.22;;;5.18;;
80481;SDS011;69797;43.864;21.410;2023-05-29T09:23:08;6.63;;;5.57;;
80481;SDS011;69797;43.864;21.410;2023-05-29T09:25:39;8.23;;;6.30;;
80481;SDS011;69797;43.864;21.410;2023-05-29T09:28:09;9.10;;;5.70;;
80481;SDS011;69797;43.864;21.410;2023-05-29T09:30:39;9.75;;;6.40;;
80481;SDS011;69797;43.864;21.410;2023-05-29T09:33:08;8.07;;;6.13;;
80481;SDS011;69797;43.864;21.410;2023-05-29T09:35:46;7.65;;;6.65;;
80481;SDS011;69797;43.864;21.410;2023-05-29T09:38:17;7.27;;;5.90;;
80481;SDS011;69797;43.864;21.410;2023-05-29T09:44:21;8.77;;;5.57;;
80481;SDS011;69797;43.864;21.410;2023-05-29T09:46:48;7.70;;;5.22;;
80481;SDS011;69797;43.864;21.410;2023-05-29T09:49:15;7.53;;;5.95;;
80481;SDS011;69797;43.864;21.410;2023-05-29T09:51:43;7.83;;;5.70;;
80481;SDS011;69797;43.864;21.410;2023-05-29T09:54:17;7.38;;;4.97;;
80481;SDS011;69797;43.864;21.410;2023-05-29T09:56:46;9.20;;;4.82;;
80481;SDS011;69797;43.864;21.410;2023-05-29T09:59:14;6.35;;;5.00;;
80481;SDS011;69797;43.864;21.410;2023-05-29T10:01:46;7.70;;;5.78;;
80481;SDS011;69797;43.864;21.410;2023-05-29T10:04:14;6.00;;;4.33;;
80481;SDS011;69797;43.864;21.410;2023-05-29T10:06:42;4.60;;;3.60;;
80481;SDS011;69797;43.864;21.410;2023-05-29T10:09:15;8.02;;;4.32;;
80481;SDS011;69797;43.864;21.410;2023-05-29T10:11:46;5.68;;;3.42;;
80481;SDS011;69797;43.864;21.410;2023-05-29T10:14:18;5.10;;;3.92;;
80481;SDS011;69797;43.864;21.410;2023-05-29T10:16:49;4.83;;;3.43;;
80481;SDS011;69797;43.864;21.410;2023-05-29T10:19:18;5.05;;;3.70;;
80481;SDS011;69797;43.864;21.410;2023-05-29T10:21:49;5.82;;;3.70;;
80481;SDS011;69797;43.864;21.410;2023-05-29T10:24:19;5.35;;;3.40;;
80481;SDS011;69797;43.864;21.410;2023-05-29T10:26:47;6.03;;;3.75;;
80481;SDS011;69797;43.864;21.410;2023-05-29T10:29:29;4.93;;;3.60;;
80481;SDS011;69797;43.864;21.410;2023-05-29T10:35:16;5.20;;;3.72;;
80481;SDS011;69797;43.864;21.410;2023-05-29T10:38:02;7.47;;;3.45;;
80481;SDS011;69797;43.864;21.410;2023-05-29T10:40:38;5.05;;;3.50;;
80481;SDS011;69797;43.864;21.410;2023-05-29T10:43:09;6.53;;;3.23;;
80481;SDS011;69797;43.864;21.410;2023-05-29T10:46:01;5.20;;;3.33;;
80481;SDS011;69797;43.864;21.410;2023-05-29T10:48:35;6.55;;;3.30;;
80481;SDS011;69797;43.864;21.410;2023-05-29T10:51:02;5.18;;;3.20;;
80481;SDS011;69797;43.864;21.410;2023-05-29T10:53:33;3.95;;;2.80;;
80481;SDS011;69797;43.864;21.410;2023-05-29T10:56:00;3.93;;;2.50;;
80481;SDS011;69797;43.864;21.410;2023-05-29T10:58:30;4.57;;;3.30;;
80481;SDS011;69797;43.864;21.410;2023-05-29T11:00:57;5.07;;;3.15;;
80481;SDS011;69797;43.864;21.410;2023-05-29T11:03:30;5.35;;;3.10;;
80481;SDS011;69797;43.864;21.410;2023-05-29T11:06:04;4.95;;;3.30;;
80481;SDS011;69797;43.864;21.410;2023-05-29T11:08:44;3.57;;;2.70;;
80481;SDS011;69797;43.864;21.410;2023-05-29T11:13:56;5.40;;;2.60;;
80481;SDS011;69797;43.864;21.410;2023-05-29T11:18:57;6.60;;;3.25;;
80481;SDS011;69797;43.864;21.410;2023-05-29T11:24:02;3.83;;;2.72;;
80481;SDS011;69797;43.864;21.410;2023-05-29T11:26:34;4.90;;;3.10;;
80481;SDS011;69797;43.864;21.410;2023-05-29T11:29:04;5.57;;;2.85;;
80481;SDS011;69797;43.864;21.410;2023-05-29T11:31:33;3.67;;;2.47;;
80481;SDS011;69797;43.864;21.410;2023-05-29T11:34:01;6.23;;;3.17;;
80481;SDS011;69797;43.864;21.410;2023-05-29T11:36:31;4.72;;;2.88;;
80481;SDS011;69797;43.864;21.410;2023-05-29T11:39:01;5.28;;;3.03;;
80481;SDS011;69797;43.864;21.410;2023-05-29T11:41:29;4.40;;;2.65;;
80481;SDS011;69797;43.864;21.410;2023-05-29T11:43:59;6.93;;;3.00;;
80481;SDS011;69797;43.864;21.410;2023-05-29T11:46:28;3.80;;;2.33;;
80481;SDS011;69797;43.864;21.410;2023-05-29T11:48:59;6.10;;;2.53;;
80481;SDS011;69797;43.864;21.410;2023-05-29T11:51:26;4.03;;;2.35;;
80481;SDS011;69797;43.864;21.410;2023-05-29T11:53:53;3.80;;;2.67;;
80481;SDS011;69797;43.864;21.410;2023-05-29T11:56:25;4.22;;;2.90;;
80481;SDS011;69797;43.864;21.410;2023-05-29T11:58:53;3.70;;;2.80;;
80481;SDS011;69797;43.864;21.410;2023-05-29T12:01:23;5.43;;;3.25;;
80481;SDS011;69797;43.864;21.410;2023-05-29T12:03:51;4.43;;;2.83;;
80481;SDS011;69797;43.864;21.410;2023-05-29T12:06:34;5.22;;;3.50;;
80481;SDS011;69797;43.864;21.410;2023-05-29T12:09:03;4.88;;;3.13;;
80481;SDS011;69797;43.864;21.410;2023-05-29T12:11:31;3.90;;;3.03;;
80481;SDS011;69797;43.864;21.410;2023-05-29T12:13:58;4.57;;;3.10;;
80481;SDS011;69797;43.864;21.410;2023-05-29T12:16:28;4.38;;;3.40;;
80481;SDS011;69797;43.864;21.410;2023-05-29T12:18:58;4.75;;;3.42;;
80481;SDS011;69797;43.864;21.410;2023-05-29T12:21:26;4.32;;;3.03;;
80481;SDS011;69797;43.864;21.410;2023-05-29T12:23:54;4.00;;;2.87;;
80481;SDS011;69797;43.864;21.410;2023-05-29T12:26:35;4.80;;;3.17;;
80481;SDS011;69797;43.864;21.410;2023-05-29T12:29:03;4.55;;;3.22;;
80481;SDS011;69797;43.864;21.410;2023-05-29T12:31:31;5.63;;;3.13;;
80481;SDS011;69797;43.864;21.410;2023-05-29T12:34:08;4.60;;;3.47;;
80481;SDS011;69797;43.864;21.410;2023-05-29T12:36:41;3.73;;;2.80;;
80481;SDS011;69797;43.864;21.410;2023-05-29T12:39:09;3.88;;;2.60;;
80481;SDS011;69797;43.864;21.410;2023-05-29T12:41:36;3.80;;;2.53;;
80481;SDS011;69797;43.864;21.410;2023-05-29T12:44:04;4.13;;;2.53;;
80481;SDS011;69797;43.864;21.410;2023-05-29T12:46:37;4.30;;;2.67;;
80481;SDS011;69797;43.864;21.410;2023-05-29T12:49:13;4.50;;;2.57;;
80481;SDS011;69797;43.864;21.410;2023-05-29T12:51:45;4.07;;;2.50;;
80481;SDS011;69797;43.864;21.410;2023-05-29T12:54:16;4.45;;;2.90;;
80481;SDS011;69797;43.864;21.410;2023-05-29T12:56:44;4.13;;;2.67;;
80481;SDS011;69797;43.864;21.410;2023-05-29T12:59:12;6.05;;;3.08;;
80481;SDS011;69797;43.864;21.410;2023-05-29T13:01:40;5.00;;;2.90;;
80481;SDS011;69797;43.864;21.410;2023-05-29T13:04:07;4.50;;;2.53;;
80481;SDS011;69797;43.864;21.410;2023-05-29T13:06:34;5.88;;;2.85;;
80481;SDS011;69797;43.864;21.410;2023-05-29T13:09:02;4.05;;;2.53;;
80481;SDS011;69797;43.864;21.410;2023-05-29T13:11:29;5.40;;;3.15;;
80481;SDS011;69797;43.864;21.410;2023-05-29T13:13:55;5.73;;;2.60;;
80481;SDS011;69797;43.864;21.410;2023-05-29T13:16:22;5.03;;;2.92;;
80481;SDS011;69797;43.864;21.410;2023-05-29T13:18:52;3.95;;;2.72;;
80481;SDS011;69797;43.864;21.410;2023-05-29T13:21:23;5.85;;;3.33;;
80481;SDS011;69797;43.864;21.410;2023-05-29T13:23:50;5.15;;;2.95;;
80481;SDS011;69797;43.864;21.410;2023-05-29T13:26:17;5.13;;;2.50;;
80481;SDS011;69797;43.864;21.410;2023-05-29T13:28:43;4.05;;;2.80;;
80481;SDS011;69797;43.864;21.410;2023-05-29T13:31:11;4.95;;;3.20;;
80481;SDS011;69797;43.864;21.410;2023-05-29T13:33:38;3.28;;;2.13;;
80481;SDS011;69797;43.864;21.410;2023-05-29T13:36:05;4.72;;;2.42;;
80481;SDS011;69797;43.864;21.410;2023-05-29T13:38:33;4.93;;;1.90;;
80481;SDS011;69797;43.864;21.410;2023-05-29T13:41:00;4.10;;;1.90;;
80481;SDS011;69797;43.864;21.410;2023-05-29T13:43:26;4.05;;;2.50;;
80481;SDS011;69797;43.864;21.410;2023-05-29T13:46:09;3.92;;;2.20;;
80481;SDS011;69797;43.864;21.410;2023-05-29T13:48:39;4.05;;;2.40;;
80481;SDS011;69797;43.864;21.410;2023-05-29T13:51:06;4.93;;;2.30;;
80481;SDS011;69797;43.864;21.410;2023-05-29T13:53:33;3.30;;;2.30;;
80481;SDS011;69797;43.864;21.410;2023-05-29T13:56:02;4.90;;;3.00;;
80481;SDS011;69797;43.864;21.410;2023-05-29T13:58:32;3.58;;;2.60;;
80481;SDS011;69797;43.864;21.410;2023-05-29T14:00:59;4.93;;;2.88;;
80481;SDS011;69797;43.864;21.410;2023-05-29T14:03:29;7.03;;;2.40;;
80481;SDS011;69797;43.864;21.410;2023-05-29T14:05:56;5.95;;;2.70;;
80481;SDS011;69797;43.864;21.410;2023-05-29T14:08:23;4.32;;;2.55;;
80481;SDS011;69797;43.864;21.410;2023-05-29T14:10:53;4.13;;;2.85;;
80481;SDS011;69797;43.864;21.410;2023-05-29T14:13:22;4.75;;;2.60;;
80481;SDS011;69797;43.864;21.410;2023-05-29T14:15:49;4.57;;;2.60;;
80481;SDS011;69797;43.864;21.410;2023-05-29T14:18:16;4.85;;;3.30;;
80481;SDS011;69797;43.864;21.410;2023-05-29T14:20:42;3.70;;;2.35;;
80481;SDS011;69797;43.864;21.410;2023-05-29T14:23:17;5.43;;;2.80;;
80481;SDS011;69797;43.864;21.410;2023-05-29T14:25:45;5.05;;;2.67;;
80481;SDS011;69797;43.864;21.410;2023-05-29T14:28:14;4.57;;;3.03;;
80481;SDS011;69797;43.864;21.410;2023-05-29T14:30:41;4.10;;;2.70;;
80481;SDS011;69797;43.864;21.410;2023-05-29T14:33:08;6.15;;;2.55;;
80481;SDS011;69797;43.864;21.410;2023-05-29T14:35:35;7.03;;;3.08;;
80481;SDS011;69797;43.864;21.410;2023-05-29T14:38:02;4.22;;;3.00;;
80481;SDS011;69797;43.864;21.410;2023-05-29T14:40:29;5.43;;;2.70;;
80481;SDS011;69797;43.864;21.410;2023-05-29T14:42:57;3.92;;;2.60;;
80481;SDS011;69797;43.864;21.410;2023-05-29T14:45:24;5.70;;;2.50;;
80481;SDS011;69797;43.864;21.410;2023-05-29T14:47:51;3.70;;;2.10;;
80481;SDS011;69797;43.864;21.410;2023-05-29T14:50:18;3.28;;;2.08;;
80481;SDS011;69797;43.864;21.410;2023-05-29T14:52:44;4.33;;;2.20;;
80481;SDS011;69797;43.864;21.410;2023-05-29T14:55:13;5.45;;;2.58;;
80481;SDS011;69797;43.864;21.410;2023-05-29T14:57:43;8.68;;;2.85;;
80481;SDS011;69797;43.864;21.410;2023-05-29T15:00:10;3.50;;;2.63;;